createdAt,value
2022-11-06T00:03:04.225Z,11.32
2022-11-06T00:06:22.056Z,13.05
2022-11-06T00:09:27.187Z,14.13
2022-11-06T00:12:35.214Z,13.20
2022-11-06T00:15:40.404Z,13.65
2022-11-06T00:18:46.100Z,12.73
2022-11-06T00:21:51.236Z,14.77
2022-11-06T00:24:56.440Z,13.88
2022-11-06T00:28:04.233Z,13.43
2022-11-06T00:31:10.138Z,13.03
2022-11-06T00:34:16.338Z,12.88
2022-11-06T00:37:21.575Z,13.23
2022-11-06T00:40:26.725Z,13.82
2022-11-06T00:43:36.015Z,12.75
2022-11-06T00:46:41.076Z,13.25
2022-11-06T00:49:46.067Z,13.23
2022-11-06T00:52:51.260Z,12.77
2022-11-06T00:55:56.257Z,12.40
2022-11-06T00:59:05.477Z,13.02
2022-11-06T01:02:10.881Z,12.95
2022-11-06T01:05:16.671Z,13.85
2022-11-06T01:08:22.111Z,12.35
2022-11-06T01:11:29.545Z,12.98
2022-11-06T01:14:42.174Z,11.20
2022-11-06T01:17:47.315Z,11.02
2022-11-06T01:20:52.519Z,11.95
2022-11-06T01:23:58.601Z,10.15
2022-11-06T01:30:31.507Z,8.98
2022-11-06T01:33:36.700Z,8.33
2022-11-06T01:36:42.056Z,7.88
2022-11-06T01:39:47.259Z,8.98
2022-11-06T01:42:52.357Z,8.40
2022-11-06T01:46:00.425Z,8.43
2022-11-06T01:49:07.873Z,8.65
2022-11-06T01:52:14.760Z,8.47
2022-11-06T01:55:21.970Z,8.00
2022-11-06T01:58:28.716Z,8.15
2022-11-06T02:01:36.860Z,8.27
2022-11-06T02:07:47.853Z,7.97
2022-11-06T02:10:53.645Z,9.00
2022-11-06T02:14:03.990Z,8.50
2022-11-06T02:17:15.221Z,8.88
2022-11-06T02:20:24.736Z,9.63
2022-11-06T02:23:45.232Z,9.18
2022-11-06T02:27:04.231Z,9.20
2022-11-06T02:30:11.171Z,9.38
2022-11-06T02:33:18.654Z,9.70
2022-11-06T02:36:26.278Z,8.98
2022-11-06T02:39:33.219Z,9.30
2022-11-06T02:42:43.551Z,10.02
2022-11-06T02:45:50.729Z,9.25
2022-11-06T02:48:57.681Z,9.10
2022-11-06T02:52:05.051Z,9.23
2022-11-06T02:55:12.396Z,9.15
2022-11-06T02:58:22.159Z,10.23
2022-11-06T03:01:30.557Z,10.50
2022-11-06T03:04:36.845Z,10.20
2022-11-06T03:07:45.279Z,9.95
2022-11-06T03:10:54.327Z,10.80
2022-11-06T03:14:05.714Z,9.73
2022-11-06T03:17:14.287Z,9.50
2022-11-06T03:20:23.777Z,10.35
2022-11-06T03:23:31.932Z,10.32
2022-11-06T03:26:39.302Z,9.93
2022-11-06T03:29:49.504Z,10.40
2022-11-06T03:32:57.704Z,10.02
2022-11-06T03:36:05.150Z,11.68
2022-11-06T03:39:12.973Z,12.25
2022-11-06T03:42:20.725Z,11.18
2022-11-06T03:45:29.663Z,12.10
2022-11-06T03:48:36.772Z,11.18
2022-11-06T03:51:44.079Z,10.75
2022-11-06T03:54:51.116Z,11.40
2022-11-06T03:57:58.355Z,10.85
2022-11-06T04:01:07.013Z,10.85
2022-11-06T04:04:14.356Z,10.32
2022-11-06T04:07:20.670Z,9.38
2022-11-06T04:10:38.448Z,9.68
2022-11-06T04:13:56.708Z,9.13
2022-11-06T04:17:06.800Z,9.13
2022-11-06T04:20:33.957Z,9.63
2022-11-06T04:23:44.482Z,9.43
2022-11-06T04:26:53.408Z,9.90
2022-11-06T04:30:06.009Z,9.48
2022-11-06T04:33:17.575Z,9.23
2022-11-06T04:36:25.565Z,9.65
2022-11-06T04:39:32.938Z,8.32
2022-11-06T04:42:40.262Z,8.32
2022-11-06T04:45:47.457Z,8.55
2022-11-06T04:48:55.531Z,9.10
2022-11-06T04:52:01.126Z,9.93
2022-11-06T04:55:06.642Z,9.13
2022-11-06T04:58:12.167Z,8.98
2022-11-06T05:01:17.670Z,9.15
2022-11-06T05:04:25.580Z,10.00
2022-11-06T05:07:30.784Z,10.27
2022-11-06T05:10:36.066Z,9.52
2022-11-06T05:13:41.272Z,8.55
2022-11-06T05:16:46.384Z,9.43
2022-11-06T05:19:54.234Z,10.25
2022-11-06T05:23:00.979Z,9.48
2022-11-06T05:26:06.265Z,8.63
2022-11-06T05:29:11.511Z,9.82
2022-11-06T05:32:16.672Z,9.00
2022-11-06T05:35:24.545Z,8.45
2022-11-06T05:38:29.910Z,8.90
2022-11-06T05:41:34.923Z,9.90
2022-11-06T05:44:40.532Z,9.95
2022-11-06T05:47:45.703Z,10.02
2022-11-06T05:50:53.773Z,10.00
2022-11-06T05:53:59.677Z,10.25
2022-11-06T05:57:04.784Z,10.15
2022-11-06T06:00:11.196Z,10.88
2022-11-06T06:03:21.690Z,11.30
2022-11-06T06:06:29.555Z,12.15
2022-11-06T06:09:35.637Z,12.35
2022-11-06T06:12:40.890Z,11.45
2022-11-06T06:15:46.628Z,12.43
2022-11-06T06:18:52.271Z,12.93
2022-11-06T06:22:00.193Z,12.68
2022-11-06T06:25:07.596Z,12.65
2022-11-06T06:28:17.729Z,12.25
2022-11-06T06:31:22.777Z,12.95
2022-11-06T06:34:28.077Z,12.52
2022-11-06T06:37:35.697Z,14.68
2022-11-06T06:40:41.106Z,13.40
2022-11-06T06:43:46.068Z,16.33
2022-11-06T06:46:51.426Z,14.13
2022-11-06T06:49:56.665Z,14.27
2022-11-06T06:53:04.515Z,12.95
2022-11-06T06:56:10.128Z,14.63
2022-11-06T06:59:15.280Z,14.20
2022-11-06T07:02:20.593Z,15.52
2022-11-06T07:05:25.789Z,15.82
2022-11-06T07:08:33.927Z,15.65
2022-11-06T07:11:38.943Z,13.90
2022-11-06T07:14:44.318Z,14.65
2022-11-06T07:17:49.502Z,16.00
2022-11-06T07:20:54.585Z,15.15
2022-11-06T07:24:02.315Z,15.65
2022-11-06T07:27:07.670Z,14.23
2022-11-06T07:30:13.715Z,14.63
2022-11-06T07:33:18.955Z,14.63
2022-11-06T07:36:24.130Z,15.23
2022-11-06T07:39:31.996Z,14.55
2022-11-06T07:42:40.789Z,15.48
2022-11-06T07:45:52.557Z,14.27
2022-11-06T07:48:57.749Z,14.27
2022-11-06T07:52:03.412Z,14.15
2022-11-06T07:55:12.129Z,13.63
2022-11-06T07:58:17.511Z,13.68
2022-11-06T08:01:22.845Z,14.27
2022-11-06T08:04:28.157Z,12.45
2022-11-06T08:07:33.123Z,14.88
2022-11-06T08:10:44.103Z,13.73
2022-11-06T08:13:49.381Z,13.10
2022-11-06T08:16:55.821Z,12.52
2022-11-06T08:20:01.012Z,13.35
2022-11-06T08:23:06.816Z,13.20
2022-11-06T08:26:14.516Z,12.50
2022-11-06T08:29:19.783Z,12.90
2022-11-06T08:32:24.986Z,12.48
2022-11-06T08:35:30.056Z,12.70
2022-11-06T08:38:35.134Z,11.60
2022-11-06T08:41:42.895Z,13.07
2022-11-06T08:44:48.412Z,11.82
2022-11-06T08:47:53.545Z,12.18
2022-11-06T08:50:58.757Z,12.50
2022-11-06T08:54:04.026Z,13.35
2022-11-06T08:57:12.103Z,12.32
2022-11-06T09:00:18.121Z,11.88
2022-11-06T09:03:23.386Z,12.52
2022-11-06T09:06:28.517Z,13.10
2022-11-06T09:09:35.044Z,12.30
2022-11-06T09:12:42.714Z,13.90
2022-11-06T09:15:48.148Z,13.65
2022-11-06T09:18:53.457Z,13.88
2022-11-06T09:21:58.709Z,13.07
2022-11-06T09:25:04.652Z,14.50
2022-11-06T09:28:12.884Z,13.55
2022-11-06T09:31:17.842Z,15.57
2022-11-06T09:34:22.978Z,14.40
2022-11-06T09:37:28.006Z,15.00
2022-11-06T09:40:34.760Z,14.48
2022-11-06T09:44:05.884Z,14.15
2022-11-06T09:47:16.868Z,14.38
2022-11-06T09:50:24.818Z,13.70
2022-11-06T09:53:33.745Z,14.80
2022-11-06T09:56:41.582Z,14.07
2022-11-06T09:59:50.092Z,13.88
2022-11-06T10:02:56.159Z,13.95
2022-11-06T10:06:01.778Z,13.60
2022-11-06T10:09:09.446Z,14.45
2022-11-06T10:12:17.126Z,14.18
2022-11-06T10:15:27.931Z,14.90
2022-11-06T10:18:38.432Z,14.90
2022-11-06T10:21:49.704Z,13.38
2022-11-06T10:25:00.828Z,14.32
2022-11-06T10:28:07.108Z,14.32
2022-11-06T10:31:18.327Z,13.80
2022-11-06T10:34:25.480Z,13.88
2022-11-06T10:37:32.387Z,14.85
2022-11-06T10:40:38.389Z,14.57
2022-11-06T10:43:46.932Z,15.05
2022-11-06T10:50:00.643Z,13.77
2022-11-06T10:53:07.919Z,14.40
2022-11-06T10:56:30.604Z,13.57
2022-11-06T10:59:36.088Z,14.18
2022-11-06T11:02:42.889Z,14.90
2022-11-06T11:05:50.689Z,15.85
2022-11-06T11:08:56.034Z,14.48
2022-11-06T11:12:01.356Z,14.80
2022-11-06T11:15:13.741Z,14.25
2022-11-06T11:18:21.101Z,14.65
2022-11-06T11:21:29.712Z,13.93
2022-11-06T11:24:35.315Z,14.13
2022-11-06T11:27:41.439Z,14.55
2022-11-06T11:30:53.807Z,12.70
2022-11-06T11:34:00.417Z,13.60
2022-11-06T11:37:09.156Z,13.77
2022-11-06T11:40:36.581Z,14.00
2022-11-06T11:43:41.716Z,13.47
2022-11-06T11:46:50.106Z,13.75
2022-11-06T11:49:55.292Z,13.48
2022-11-06T11:53:10.191Z,15.23
2022-11-06T11:56:36.204Z,13.52
2022-11-06T11:59:46.285Z,13.60
2022-11-06T12:02:52.183Z,15.23
2022-11-06T12:05:57.605Z,15.25
2022-11-06T12:09:05.464Z,13.65
2022-11-06T12:12:22.105Z,14.57
2022-11-06T12:15:30.455Z,12.75
2022-11-06T12:21:43.216Z,12.27
2022-11-06T12:24:55.862Z,14.57
2022-11-06T12:28:02.153Z,15.18
2022-11-06T12:31:09.675Z,13.27
2022-11-06T12:34:17.822Z,13.47
2022-11-06T12:40:31.784Z,13.15
2022-11-06T12:43:40.239Z,14.48
2022-11-06T12:46:49.228Z,13.27
2022-11-06T12:50:06.032Z,12.95
2022-11-06T12:53:26.875Z,12.70
2022-11-06T12:56:39.100Z,12.38
2022-11-06T12:59:51.568Z,13.77
2022-11-06T13:03:07.172Z,12.77
2022-11-06T13:06:16.087Z,12.82
2022-11-06T13:09:24.108Z,14.25
2022-11-06T13:12:35.654Z,13.43
2022-11-06T13:15:44.437Z,12.90
2022-11-06T13:18:53.448Z,12.70
2022-11-06T13:22:06.324Z,12.48
2022-11-06T13:25:17.579Z,12.52
2022-11-06T13:28:31.662Z,12.68
2022-11-06T13:31:38.879Z,12.68
2022-11-06T13:34:44.726Z,11.82
2022-11-06T13:37:51.583Z,12.02
2022-11-06T13:41:03.322Z,11.93
2022-11-06T13:44:16.315Z,12.38
2022-11-06T13:47:25.397Z,11.50
2022-11-06T13:50:33.294Z,12.80
2022-11-06T13:53:41.855Z,11.65
2022-11-06T14:00:06.974Z,10.38
2022-11-06T14:03:32.807Z,9.80
2022-11-06T14:06:38.903Z,9.40
2022-11-06T14:09:46.644Z,9.63
2022-11-06T14:12:52.311Z,8.93
2022-11-06T14:16:28.284Z,8.90
2022-11-06T14:19:33.632Z,8.25
2022-11-06T14:22:39.397Z,8.57
2022-11-06T14:25:48.616Z,8.82
2022-11-06T14:28:53.639Z,8.13
2022-11-06T14:32:06.868Z,8.77
2022-11-06T14:35:26.922Z,7.88
2022-11-06T14:38:43.057Z,7.00
2022-11-06T14:41:58.204Z,7.90
2022-11-06T14:45:04.508Z,7.75
2022-11-06T14:48:19.198Z,7.00
2022-11-06T14:51:29.179Z,7.82
2022-11-06T14:54:34.791Z,7.07
2022-11-06T14:57:45.994Z,7.03
2022-11-06T15:00:55.250Z,8.07
2022-11-06T15:04:05.285Z,6.55
2022-11-06T15:07:10.935Z,7.22
2022-11-06T15:10:31.063Z,6.70
2022-11-06T15:13:36.190Z,6.88
2022-11-06T15:16:43.867Z,8.02
2022-11-06T15:19:53.002Z,7.32
2022-11-06T15:23:14.046Z,6.85
2022-11-06T15:26:24.205Z,6.80
2022-11-06T15:29:30.252Z,7.05
2022-11-06T15:32:38.823Z,6.88
2022-11-06T15:35:49.895Z,7.00
2022-11-06T15:38:55.140Z,7.05
2022-11-06T15:42:00.955Z,7.22
2022-11-06T15:45:13.051Z,8.40
2022-11-06T15:48:21.788Z,7.45
2022-11-06T15:51:31.277Z,7.55
2022-11-06T15:54:37.406Z,7.70
2022-11-06T15:57:42.570Z,8.70
2022-11-06T16:00:48.593Z,8.65
2022-11-06T16:03:55.265Z,9.73
2022-11-06T16:07:06.075Z,8.63
2022-11-06T16:10:16.337Z,9.50
2022-11-06T16:13:22.243Z,8.95
2022-11-06T16:16:35.747Z,8.65
2022-11-06T16:19:42.870Z,8.48
2022-11-06T16:22:51.161Z,8.48
2022-11-06T16:29:01.963Z,8.65
2022-11-06T16:32:09.425Z,8.40
2022-11-06T16:35:29.502Z,8.52
2022-11-06T16:38:45.098Z,8.68
2022-11-06T16:42:02.671Z,8.98
2022-11-06T16:45:29.143Z,9.70
2022-11-06T16:48:36.220Z,8.85
2022-11-06T16:51:41.377Z,9.20
2022-11-06T16:54:51.213Z,9.32
2022-11-06T16:57:58.104Z,8.82
2022-11-06T17:01:04.191Z,9.45
2022-11-06T17:04:10.088Z,9.68
2022-11-06T17:07:20.837Z,9.73
2022-11-06T17:10:44.150Z,9.80
2022-11-06T17:13:52.444Z,9.25
2022-11-06T17:20:04.225Z,9.30
2022-11-06T17:23:14.975Z,9.63
2022-11-06T17:26:23.883Z,9.02
2022-11-06T17:29:33.935Z,10.13
2022-11-06T17:32:38.935Z,10.05
2022-11-06T17:35:44.741Z,9.70
2022-11-06T17:38:50.212Z,10.70
2022-11-06T17:41:55.941Z,10.32
2022-11-06T17:45:03.737Z,9.77
2022-11-06T17:48:09.525Z,9.70
2022-11-06T17:51:27.312Z,10.40
2022-11-06T17:54:33.586Z,9.15
2022-11-06T17:57:38.906Z,10.32
2022-11-06T18:00:46.644Z,10.23
2022-11-06T18:03:51.801Z,10.50
2022-11-06T18:06:56.968Z,9.38
2022-11-06T18:10:02.147Z,9.35
2022-11-06T18:13:09.060Z,9.63
2022-11-06T18:16:23.579Z,10.60
2022-11-06T18:19:29.567Z,9.68
2022-11-06T18:22:35.036Z,9.52
2022-11-06T18:25:40.587Z,10.52
2022-11-06T18:28:46.210Z,11.48
2022-11-06T18:31:54.167Z,11.43
2022-11-06T18:34:59.356Z,9.77
2022-11-06T18:38:04.654Z,9.70
2022-11-06T18:41:10.593Z,10.80
2022-11-06T18:44:15.983Z,11.43
2022-11-06T18:47:23.848Z,11.48
2022-11-06T18:50:29.049Z,10.73
2022-11-06T18:53:34.393Z,11.57
2022-11-06T18:56:39.878Z,11.77
2022-11-06T18:59:45.103Z,11.90
2022-11-06T19:02:53.303Z,11.80
2022-11-06T19:05:58.651Z,11.90
2022-11-06T19:09:03.883Z,12.23
2022-11-06T19:12:09.359Z,11.88
2022-11-06T19:15:14.636Z,12.35
2022-11-06T19:18:22.438Z,13.05
2022-11-06T19:21:28.688Z,12.25
2022-11-06T19:24:35.038Z,11.30
2022-11-06T19:27:40.334Z,11.82
2022-11-06T19:30:45.722Z,12.73
2022-11-06T19:33:53.804Z,12.38
2022-11-06T19:36:58.924Z,12.57
2022-11-06T19:40:06.067Z,12.23
2022-11-06T19:43:11.765Z,12.37
2022-11-06T19:46:23.384Z,11.73
2022-11-06T19:49:33.853Z,13.15
2022-11-06T19:52:41.344Z,12.68
2022-11-06T19:55:49.638Z,11.52
2022-11-06T19:58:54.990Z,11.32
2022-11-06T20:02:00.532Z,11.45
2022-11-06T20:05:09.181Z,11.38
2022-11-06T20:08:14.722Z,11.50
2022-11-06T20:11:20.533Z,11.82
2022-11-06T20:14:25.511Z,12.38
2022-11-06T20:17:30.937Z,10.68
2022-11-06T20:20:38.577Z,11.25
2022-11-06T20:23:43.714Z,11.83
2022-11-06T20:26:48.750Z,11.60
2022-11-06T20:29:53.941Z,11.45
2022-11-06T20:32:59.166Z,11.18
2022-11-06T20:36:14.791Z,11.13
2022-11-06T20:39:19.948Z,11.82
2022-11-06T20:42:25.246Z,10.70
2022-11-06T20:45:30.842Z,10.52
2022-11-06T20:48:37.172Z,10.52
2022-11-06T20:52:12.209Z,10.48
2022-11-06T20:55:10.705Z,9.95
2022-11-06T20:58:17.120Z,10.80
2022-11-06T21:01:23.393Z,10.20
2022-11-06T21:04:28.776Z,10.93
2022-11-06T21:07:36.598Z,10.60
2022-11-06T21:10:42.032Z,10.38
2022-11-06T21:13:48.439Z,9.98
2022-11-06T21:16:54.511Z,11.07
2022-11-06T21:19:59.511Z,9.85
2022-11-06T21:23:09.448Z,9.95
2022-11-06T21:26:15.371Z,10.27
2022-11-06T21:29:20.454Z,10.32
2022-11-06T21:32:25.472Z,9.60
2022-11-06T21:35:31.273Z,9.90
2022-11-06T21:38:39.196Z,9.48
2022-11-06T21:41:44.726Z,10.93
2022-11-06T21:44:50.257Z,10.52
2022-11-06T21:47:55.256Z,10.18
2022-11-06T21:51:00.721Z,9.70
2022-11-06T21:54:21.200Z,8.63
2022-11-06T21:57:26.252Z,9.45
2022-11-06T22:00:31.262Z,9.80
2022-11-06T22:03:36.853Z,9.75
2022-11-06T22:06:42.817Z,9.10
2022-11-06T22:09:50.879Z,9.82
2022-11-06T22:12:55.906Z,8.82
2022-11-06T22:16:03.786Z,8.68
2022-11-06T22:19:09.739Z,8.70
2022-11-06T22:22:14.980Z,9.65
2022-11-06T22:25:23.484Z,10.10
2022-11-06T22:31:33.938Z,10.63
2022-11-06T22:34:39.117Z,10.02
2022-11-06T22:37:44.397Z,10.18
2022-11-06T22:40:58.684Z,10.45
2022-11-06T22:44:04.140Z,9.05
2022-11-06T22:47:09.631Z,9.98
2022-11-06T22:50:14.974Z,9.68
2022-11-06T22:53:20.490Z,11.20
2022-11-06T22:56:29.472Z,10.80
2022-11-06T22:59:34.545Z,10.93
2022-11-06T23:02:39.552Z,11.88
2022-11-06T23:05:44.804Z,11.43
2022-11-06T23:08:49.779Z,12.10
2022-11-06T23:11:57.599Z,11.15
2022-11-06T23:15:03.105Z,10.50
2022-11-06T23:18:08.517Z,10.73
2022-11-06T23:21:14.806Z,11.50
2022-11-06T23:24:20.066Z,10.43
2022-11-06T23:27:28.006Z,11.63
2022-11-06T23:30:33.338Z,11.40
2022-11-06T23:33:39.018Z,11.02
2022-11-06T23:36:44.250Z,10.52
2022-11-06T23:39:49.487Z,11.57
2022-11-06T23:42:57.861Z,10.65
2022-11-06T23:49:05.292Z,11.35
2022-11-06T23:52:10.292Z,10.57
2022-11-06T23:55:15.677Z,11.65
2022-11-06T23:58:23.476Z,11.27
